sensor_id;sensor_type;location;lat;lon;timestamp;temperature;humidity
19437;DHT22;9854;50.968;4.168;2023-10-09T00:01:06;18.20;99.90
19437;DHT22;9854;50.968;4.168;2023-10-09T00:03:38;18.20;99.90
19437;DHT22;9854;50.968;4.168;2023-10-09T00:06:05;18.10;99.90
19437;DHT22;9854;50.968;4.168;2023-10-09T00:08:30;18.00;99.90
19437;DHT22;9854;50.968;4.168;2023-10-09T00:10:58;18.00;99.90
19437;DHT22;9854;50.968;4.168;2023-10-09T00:13:25;18.10;99.90
19437;DHT22;9854;50.968;4.168;2023-10-09T00:15:56;18.20;99.90
19437;DHT22;9854;50.968;4.168;2023-10-09T00:18:26;18.10;99.90
19437;DHT22;9854;50.968;4.168;2023-10-09T00:20:58;18.00;99.90
19437;DHT22;9854;50.968;4.168;2023-10-09T00:23:27;18.10;99.90
19437;DHT22;9854;50.968;4.168;2023-10-09T00:25:53;18.20;99.90
19437;DHT22;9854;50.968;4.168;2023-10-09T00:28:38;18.10;99.90
19437;DHT22;9854;50.968;4.168;2023-10-09T00:31:08;18.10;99.90
19437;DHT22;9854;50.968;4.168;2023-10-09T00:33:40;18.00;99.90
19437;DHT22;9854;50.968;4.168;2023-10-09T00:36:07;17.90;99.90
19437;DHT22;9854;50.968;4.168;2023-10-09T00:38:39;18.00;99.90
19437;DHT22;9854;50.968;4.168;2023-10-09T00:41:19;18.00;99.90
19437;DHT22;9854;50.968;4.168;2023-10-09T00:43:51;18.10;99.90
19437;DHT22;9854;50.968;4.168;2023-10-09T00:46:18;18.00;99.90
19437;DHT22;9854;50.968;4.168;2023-10-09T00:48:45;18.00;99.90
19437;DHT22;9854;50.968;4.168;2023-10-09T00:51:13;18.00;99.90
19437;DHT22;9854;50.968;4.168;2023-10-09T00:53:48;17.90;99.90
19437;DHT22;9854;50.968;4.168;2023-10-09T00:56:18;17.80;99.90
19437;DHT22;9854;50.968;4.168;2023-10-09T00:58:46;17.80;99.90
19437;DHT22;9854;50.968;4.168;2023-10-09T01:01:12;17.80;99.90
19437;DHT22;9854;50.968;4.168;2023-10-09T01:03:42;17.80;99.90
19437;DHT22;9854;50.968;4.168;2023-10-09T01:06:10;17.80;99.90
19437;DHT22;9854;50.968;4.168;2023-10-09T01:08:39;17.80;99.90
19437;DHT22;9854;50.968;4.168;2023-10-09T01:11:15;17.80;99.90
19437;DHT22;9854;50.968;4.168;2023-10-09T01:13:47;17.90;99.90
19437;DHT22;9854;50.968;4.168;2023-10-09T01:16:14;17.90;99.90
19437;DHT22;9854;50.968;4.168;2023-10-09T01:18:43;18.00;99.90
19437;DHT22;9854;50.968;4.168;2023-10-09T01:21:12;18.00;99.90
19437;DHT22;9854;50.968;4.168;2023-10-09T01:23:41;18.00;99.90
19437;DHT22;9854;50.968;4.168;2023-10-09T01:26:24;18.00;99.90
19437;DHT22;9854;50.968;4.168;2023-10-09T01:28:50;17.90;99.90
19437;DHT22;9854;50.968;4.168;2023-10-09T01:31:16;17.80;99.90
19437;DHT22;9854;50.968;4.168;2023-10-09T01:36:12;17.80;99.90
19437;DHT22;9854;50.968;4.168;2023-10-09T01:38:40;18.00;99.90
19437;DHT22;9854;50.968;4.168;2023-10-09T01:41:12;17.90;99.90
19437;DHT22;9854;50.968;4.168;2023-10-09T01:43:45;17.70;99.90
19437;DHT22;9854;50.968;4.168;2023-10-09T01:46:12;17.60;99.90
19437;DHT22;9854;50.968;4.168;2023-10-09T01:48:41;17.70;99.90
19437;DHT22;9854;50.968;4.168;2023-10-09T01:51:15;17.80;99.90
19437;DHT22;9854;50.968;4.168;2023-10-09T01:53:44;17.80;99.90
19437;DHT22;9854;50.968;4.168;2023-10-09T01:56:13;17.70;99.90
19437;DHT22;9854;50.968;4.168;2023-10-09T01:58:41;17.80;99.90
19437;DHT22;9854;50.968;4.168;2023-10-09T02:01:08;17.70;99.90
19437;DHT22;9854;50.968;4.168;2023-10-09T02:03:34;17.70;99.90
19437;DHT22;9854;50.968;4.168;2023-10-09T02:06:02;17.60;99.90
19437;DHT22;9854;50.968;4.168;2023-10-09T02:08:43;17.60;99.90
19437;DHT22;9854;50.968;4.168;2023-10-09T02:11:15;17.70;99.90
19437;DHT22;9854;50.968;4.168;2023-10-09T02:13:50;17.70;99.90
19437;DHT22;9854;50.968;4.168;2023-10-09T02:16:22;17.70;99.90
19437;DHT22;9854;50.968;4.168;2023-10-09T02:18:54;17.70;99.90
19437;DHT22;9854;50.968;4.168;2023-10-09T02:21:24;17.70;99.90
19437;DHT22;9854;50.968;4.168;2023-10-09T02:24:01;17.70;99.90
19437;DHT22;9854;50.968;4.168;2023-10-09T02:26:32;17.60;99.90
19437;DHT22;9854;50.968;4.168;2023-10-09T02:29:04;17.60;99.90
19437;DHT22;9854;50.968;4.168;2023-10-09T02:31:39;17.70;99.90
19437;DHT22;9854;50.968;4.168;2023-10-09T02:34:17;17.80;99.90
19437;DHT22;9854;50.968;4.168;2023-10-09T02:36:51;17.70;99.90
19437;DHT22;9854;50.968;4.168;2023-10-09T02:39:31;17.60;99.90
19437;DHT22;9854;50.968;4.168;2023-10-09T02:42:09;17.50;99.90
19437;DHT22;9854;50.968;4.168;2023-10-09T02:44:40;17.50;99.90
19437;DHT22;9854;50.968;4.168;2023-10-09T02:47:12;17.60;99.90
19437;DHT22;9854;50.968;4.168;2023-10-09T02:49:48;17.60;99.90
19437;DHT22;9854;50.968;4.168;2023-10-09T02:52:14;17.70;99.90
19437;DHT22;9854;50.968;4.168;2023-10-09T02:54:45;17.60;99.90
19437;DHT22;9854;50.968;4.168;2023-10-09T02:57:13;17.60;99.90
19437;DHT22;9854;50.968;4.168;2023-10-09T02:59:48;17.50;99.90
19437;DHT22;9854;50.968;4.168;2023-10-09T03:02:17;17.50;99.90
19437;DHT22;9854;50.968;4.168;2023-10-09T03:04:43;17.40;99.90
19437;DHT22;9854;50.968;4.168;2023-10-09T03:07:09;17.40;99.90
19437;DHT22;9854;50.968;4.168;2023-10-09T03:09:36;17.40;99.90
19437;DHT22;9854;50.968;4.168;2023-10-09T03:12:03;17.40;99.90
19437;DHT22;9854;50.968;4.168;2023-10-09T03:14:33;17.40;99.90
19437;DHT22;9854;50.968;4.168;2023-10-09T03:17:01;17.40;99.90
19437;DHT22;9854;50.968;4.168;2023-10-09T03:19:28;17.40;99.90
19437;DHT22;9854;50.968;4.168;2023-10-09T03:21:54;17.40;99.90
19437;DHT22;9854;50.968;4.168;2023-10-09T03:24:23;17.40;99.90
19437;DHT22;9854;50.968;4.168;2023-10-09T03:26:49;17.40;99.90
19437;DHT22;9854;50.968;4.168;2023-10-09T03:29:15;17.30;99.90
19437;DHT22;9854;50.968;4.168;2023-10-09T03:31:40;17.30;99.90
19437;DHT22;9854;50.968;4.168;2023-10-09T03:34:08;17.20;99.90
19437;DHT22;9854;50.968;4.168;2023-10-09T03:36:36;17.20;99.90
19437;DHT22;9854;50.968;4.168;2023-10-09T03:39:05;17.20;99.90
19437;DHT22;9854;50.968;4.168;2023-10-09T03:41:50;17.20;99.90
19437;DHT22;9854;50.968;4.168;2023-10-09T03:44:16;17.20;99.90
19437;DHT22;9854;50.968;4.168;2023-10-09T03:46:45;17.20;99.90
19437;DHT22;9854;50.968;4.168;2023-10-09T03:49:11;17.10;99.90
19437;DHT22;9854;50.968;4.168;2023-10-09T03:51:38;17.10;99.90
19437;DHT22;9854;50.968;4.168;2023-10-09T03:54:05;17.20;99.90
19437;DHT22;9854;50.968;4.168;2023-10-09T03:56:33;17.20;99.90
19437;DHT22;9854;50.968;4.168;2023-10-09T03:58:59;17.20;99.90
19437;DHT22;9854;50.968;4.168;2023-10-09T04:01:26;17.10;99.90
19437;DHT22;9854;50.968;4.168;2023-10-09T04:03:52;17.20;99.90
19437;DHT22;9854;50.968;4.168;2023-10-09T04:06:22;17.10;99.90
19437;DHT22;9854;50.968;4.168;2023-10-09T04:08:48;17.10;99.90
19437;DHT22;9854;50.968;4.168;2023-10-09T04:11:15;17.00;99.90
19437;DHT22;9854;50.968;4.168;2023-10-09T04:13:48;17.00;99.90
19437;DHT22;9854;50.968;4.168;2023-10-09T04:16:21;17.20;99.90
19437;DHT22;9854;50.968;4.168;2023-10-09T04:19:00;17.40;99.90
19437;DHT22;9854;50.968;4.168;2023-10-09T04:21:32;17.20;99.90
19437;DHT22;9854;50.968;4.168;2023-10-09T04:24:02;17.20;99.90
19437;DHT22;9854;50.968;4.168;2023-10-09T04:26:49;17.20;99.90
19437;DHT22;9854;50.968;4.168;2023-10-09T04:29:22;17.10;99.90
19437;DHT22;9854;50.968;4.168;2023-10-09T04:31:55;17.00;99.90
19437;DHT22;9854;50.968;4.168;2023-10-09T04:34:25;17.10;99.90
19437;DHT22;9854;50.968;4.168;2023-10-09T04:37:14;17.10;99.90
19437;DHT22;9854;50.968;4.168;2023-10-09T04:39:40;16.90;99.90
19437;DHT22;9854;50.968;4.168;2023-10-09T04:42:13;16.80;99.90
19437;DHT22;9854;50.968;4.168;2023-10-09T04:44:51;16.80;99.90
19437;DHT22;9854;50.968;4.168;2023-10-09T04:47:30;16.90;99.90
19437;DHT22;9854;50.968;4.168;2023-10-09T04:50:05;16.90;99.90
19437;DHT22;9854;50.968;4.168;2023-10-09T04:52:40;17.00;99.90
19437;DHT22;9854;50.968;4.168;2023-10-09T04:55:07;17.00;99.90
19437;DHT22;9854;50.968;4.168;2023-10-09T04:57:33;17.10;99.90
19437;DHT22;9854;50.968;4.168;2023-10-09T05:00:15;17.10;99.90
19437;DHT22;9854;50.968;4.168;2023-10-09T05:02:53;17.20;99.90
19437;DHT22;9854;50.968;4.168;2023-10-09T05:05:27;17.10;99.90
19437;DHT22;9854;50.968;4.168;2023-10-09T05:08:10;17.10;99.90
19437;DHT22;9854;50.968;4.168;2023-10-09T05:10:58;17.10;99.90
19437;DHT22;9854;50.968;4.168;2023-10-09T05:13:24;17.30;99.90
19437;DHT22;9854;50.968;4.168;2023-10-09T05:18:57;17.20;99.90
19437;DHT22;9854;50.968;4.168;2023-10-09T05:21:35;17.10;99.90
19437;DHT22;9854;50.968;4.168;2023-10-09T05:24:11;17.10;99.90
19437;DHT22;9854;50.968;4.168;2023-10-09T05:26:37;17.10;99.90
19437;DHT22;9854;50.968;4.168;2023-10-09T05:31:54;16.80;99.90
19437;DHT22;9854;50.968;4.168;2023-10-09T05:34:29;16.90;99.90
19437;DHT22;9854;50.968;4.168;2023-10-09T05:37:21;16.80;99.90
19437;DHT22;9854;50.968;4.168;2023-10-09T05:40:01;16.70;99.90
19437;DHT22;9854;50.968;4.168;2023-10-09T05:42:31;16.70;99.90
19437;DHT22;9854;50.968;4.168;2023-10-09T05:45:07;16.50;99.90
19437;DHT22;9854;50.968;4.168;2023-10-09T05:47:52;16.40;99.90
19437;DHT22;9854;50.968;4.168;2023-10-09T05:50:37;16.40;99.90
19437;DHT22;9854;50.968;4.168;2023-10-09T05:53:25;16.50;99.90
19437;DHT22;9854;50.968;4.168;2023-10-09T05:56:09;16.60;99.90
19437;DHT22;9854;50.968;4.168;2023-10-09T05:58:53;16.60;99.90
19437;DHT22;9854;50.968;4.168;2023-10-09T06:01:31;16.70;99.90
19437;DHT22;9854;50.968;4.168;2023-10-09T06:04:15;16.80;99.90
19437;DHT22;9854;50.968;4.168;2023-10-09T06:06:45;16.70;99.90
19437;DHT22;9854;50.968;4.168;2023-10-09T06:09:12;16.80;99.90
19437;DHT22;9854;50.968;4.168;2023-10-09T06:11:38;16.90;99.90
19437;DHT22;9854;50.968;4.168;2023-10-09T06:14:05;16.80;99.90
19437;DHT22;9854;50.968;4.168;2023-10-09T06:16:34;16.90;99.90
19437;DHT22;9854;50.968;4.168;2023-10-09T06:19:12;16.80;99.90
19437;DHT22;9854;50.968;4.168;2023-10-09T06:21:51;16.80;99.90
19437;DHT22;9854;50.968;4.168;2023-10-09T06:24:26;17.00;99.90
19437;DHT22;9854;50.968;4.168;2023-10-09T06:26:59;16.90;99.90
19437;DHT22;9854;50.968;4.168;2023-10-09T06:29:29;16.80;99.90
19437;DHT22;9854;50.968;4.168;2023-10-09T06:32:05;16.90;99.90
19437;DHT22;9854;50.968;4.168;2023-10-09T06:34:45;16.90;99.90
19437;DHT22;9854;50.968;4.168;2023-10-09T06:37:14;17.00;99.90
19437;DHT22;9854;50.968;4.168;2023-10-09T06:40:00;17.10;99.90
19437;DHT22;9854;50.968;4.168;2023-10-09T06:42:55;17.20;99.90
19437;DHT22;9854;50.968;4.168;2023-10-09T06:45:21;17.30;99.90
19437;DHT22;9854;50.968;4.168;2023-10-09T06:47:48;17.00;99.90
19437;DHT22;9854;50.968;4.168;2023-10-09T06:50:35;16.80;99.90
19437;DHT22;9854;50.968;4.168;2023-10-09T06:53:19;16.90;99.90
19437;DHT22;9854;50.968;4.168;2023-10-09T06:55:45;16.80;99.90
19437;DHT22;9854;50.968;4.168;2023-10-09T06:58:21;16.80;99.90
19437;DHT22;9854;50.968;4.168;2023-10-09T07:00:54;16.90;99.90
19437;DHT22;9854;50.968;4.168;2023-10-09T07:03:24;17.10;99.90
19437;DHT22;9854;50.968;4.168;2023-10-09T07:06:10;17.30;99.90
19437;DHT22;9854;50.968;4.168;2023-10-09T07:08:55;17.40;99.90
19437;DHT22;9854;50.968;4.168;2023-10-09T07:11:36;17.20;99.90
19437;DHT22;9854;50.968;4.168;2023-10-09T07:14:05;17.20;99.90
19437;DHT22;9854;50.968;4.168;2023-10-09T07:16:32;17.10;99.90
19437;DHT22;9854;50.968;4.168;2023-10-09T07:19:07;17.10;99.90
19437;DHT22;9854;50.968;4.168;2023-10-09T07:21:50;17.10;99.90
19437;DHT22;9854;50.968;4.168;2023-10-09T07:24:20;17.10;99.90
19437;DHT22;9854;50.968;4.168;2023-10-09T07:26:50;16.90;99.90
19437;DHT22;9854;50.968;4.168;2023-10-09T07:29:20;16.80;99.90
19437;DHT22;9854;50.968;4.168;2023-10-09T07:31:50;17.00;99.90
19437;DHT22;9854;50.968;4.168;2023-10-09T07:34:23;17.00;99.90
19437;DHT22;9854;50.968;4.168;2023-10-09T07:37:27;16.90;99.90
19437;DHT22;9854;50.968;4.168;2023-10-09T07:39:59;17.00;99.90
19437;DHT22;9854;50.968;4.168;2023-10-09T07:42:32;17.10;99.90
19437;DHT22;9854;50.968;4.168;2023-10-09T07:45:01;17.30;99.90
19437;DHT22;9854;50.968;4.168;2023-10-09T07:47:38;17.50;99.90
19437;DHT22;9854;50.968;4.168;2023-10-09T07:50:37;17.60;99.90
19437;DHT22;9854;50.968;4.168;2023-10-09T07:53:09;17.80;99.90
19437;DHT22;9854;50.968;4.168;2023-10-09T07:55:46;17.70;99.90
19437;DHT22;9854;50.968;4.168;2023-10-09T07:58:24;17.60;99.90
19437;DHT22;9854;50.968;4.168;2023-10-09T08:00:57;17.50;99.90
19437;DHT22;9854;50.968;4.168;2023-10-09T08:03:36;17.60;99.90
19437;DHT22;9854;50.968;4.168;2023-10-09T08:06:02;17.70;99.90
19437;DHT22;9854;50.968;4.168;2023-10-09T08:08:46;17.90;99.90
19437;DHT22;9854;50.968;4.168;2023-10-09T08:11:31;17.90;99.90
19437;DHT22;9854;50.968;4.168;2023-10-09T08:14:09;18.00;99.90
19437;DHT22;9854;50.968;4.168;2023-10-09T08:16:54;18.10;99.90
19437;DHT22;9854;50.968;4.168;2023-10-09T08:19:38;18.10;99.90
19437;DHT22;9854;50.968;4.168;2023-10-09T08:24:52;18.00;99.90
19437;DHT22;9854;50.968;4.168;2023-10-09T08:27:28;18.00;99.90
19437;DHT22;9854;50.968;4.168;2023-10-09T08:29:53;18.00;99.90
19437;DHT22;9854;50.968;4.168;2023-10-09T08:32:38;18.10;99.90
19437;DHT22;9854;50.968;4.168;2023-10-09T08:35:06;18.20;99.90
19437;DHT22;9854;50.968;4.168;2023-10-09T08:37:58;18.20;99.90
19437;DHT22;9854;50.968;4.168;2023-10-09T08:40:32;18.30;99.90
19437;DHT22;9854;50.968;4.168;2023-10-09T08:43:14;18.30;99.90
19437;DHT22;9854;50.968;4.168;2023-10-09T08:45:46;18.40;99.90
19437;DHT22;9854;50.968;4.168;2023-10-09T08:48:12;18.50;99.90
19437;DHT22;9854;50.968;4.168;2023-10-09T08:50:42;18.50;99.90
19437;DHT22;9854;50.968;4.168;2023-10-09T08:53:12;18.50;99.90
19437;DHT22;9854;50.968;4.168;2023-10-09T08:55:38;18.80;99.90
19437;DHT22;9854;50.968;4.168;2023-10-09T08:58:05;18.90;99.90
19437;DHT22;9854;50.968;4.168;2023-10-09T09:00:49;19.00;99.90
19437;DHT22;9854;50.968;4.168;2023-10-09T09:03:16;19.20;99.90
19437;DHT22;9854;50.968;4.168;2023-10-09T09:05:48;19.30;99.90
19437;DHT22;9854;50.968;4.168;2023-10-09T09:08:24;19.20;99.90
19437;DHT22;9854;50.968;4.168;2023-10-09T09:11:01;19.00;99.90
19437;DHT22;9854;50.968;4.168;2023-10-09T09:13:49;18.90;99.90
19437;DHT22;9854;50.968;4.168;2023-10-09T09:16:33;18.90;99.90
19437;DHT22;9854;50.968;4.168;2023-10-09T09:19:07;19.00;99.90
19437;DHT22;9854;50.968;4.168;2023-10-09T09:21:38;19.20;99.90
19437;DHT22;9854;50.968;4.168;2023-10-09T09:24:07;19.30;99.90
19437;DHT22;9854;50.968;4.168;2023-10-09T09:26:57;19.20;99.90
19437;DHT22;9854;50.968;4.168;2023-10-09T09:32:04;19.50;99.90
19437;DHT22;9854;50.968;4.168;2023-10-09T09:34:49;19.50;99.90
19437;DHT22;9854;50.968;4.168;2023-10-09T09:37:29;19.80;99.90
19437;DHT22;9854;50.968;4.168;2023-10-09T09:40:01;19.90;99.90
19437;DHT22;9854;50.968;4.168;2023-10-09T09:42:30;19.80;99.90
19437;DHT22;9854;50.968;4.168;2023-10-09T09:45:01;19.90;99.90
19437;DHT22;9854;50.968;4.168;2023-10-09T09:47:27;20.10;99.90
19437;DHT22;9854;50.968;4.168;2023-10-09T09:49:56;20.00;99.90
19437;DHT22;9854;50.968;4.168;2023-10-09T09:52:31;20.00;99.90
19437;DHT22;9854;50.968;4.168;2023-10-09T09:55:05;20.10;99.90
19437;DHT22;9854;50.968;4.168;2023-10-09T09:57:33;20.00;99.90
19437;DHT22;9854;50.968;4.168;2023-10-09T10:00:06;19.80;99.90
19437;DHT22;9854;50.968;4.168;2023-10-09T10:02:44;20.00;99.90
19437;DHT22;9854;50.968;4.168;2023-10-09T10:05:12;20.20;99.90
19437;DHT22;9854;50.968;4.168;2023-10-09T10:07:41;20.20;99.90
19437;DHT22;9854;50.968;4.168;2023-10-09T10:10:37;20.20;99.90
19437;DHT22;9854;50.968;4.168;2023-10-09T10:13:05;20.40;99.90
19437;DHT22;9854;50.968;4.168;2023-10-09T10:18:31;20.50;99.90
19437;DHT22;9854;50.968;4.168;2023-10-09T10:21:10;20.70;99.90
19437;DHT22;9854;50.968;4.168;2023-10-09T10:23:46;20.80;99.90
19437;DHT22;9854;50.968;4.168;2023-10-09T10:26:19;20.90;99.90
19437;DHT22;9854;50.968;4.168;2023-10-09T10:29:22;20.70;99.90
19437;DHT22;9854;50.968;4.168;2023-10-09T10:32:01;20.80;99.90
19437;DHT22;9854;50.968;4.168;2023-10-09T10:34:52;20.90;99.90
19437;DHT22;9854;50.968;4.168;2023-10-09T10:37:38;20.60;99.90
19437;DHT22;9854;50.968;4.168;2023-10-09T10:40:23;20.80;99.90
19437;DHT22;9854;50.968;4.168;2023-10-09T10:43:04;21.00;99.90
19437;DHT22;9854;50.968;4.168;2023-10-09T10:45:39;21.00;99.90
19437;DHT22;9854;50.968;4.168;2023-10-09T10:48:11;20.90;99.90
19437;DHT22;9854;50.968;4.168;2023-10-09T10:50:58;20.90;99.90
19437;DHT22;9854;50.968;4.168;2023-10-09T10:53:24;21.10;99.90
19437;DHT22;9854;50.968;4.168;2023-10-09T10:56:01;21.10;99.90
19437;DHT22;9854;50.968;4.168;2023-10-09T10:58:43;21.20;99.90
19437;DHT22;9854;50.968;4.168;2023-10-09T11:01:34;21.10;99.90
19437;DHT22;9854;50.968;4.168;2023-10-09T11:04:27;21.20;99.90
19437;DHT22;9854;50.968;4.168;2023-10-09T11:07:00;21.30;99.90
19437;DHT22;9854;50.968;4.168;2023-10-09T11:09:49;21.60;99.90
19437;DHT22;9854;50.968;4.168;2023-10-09T11:12:31;21.80;99.90
19437;DHT22;9854;50.968;4.168;2023-10-09T11:15:16;21.90;99.90
19437;DHT22;9854;50.968;4.168;2023-10-09T11:17:59;22.10;99.90
19437;DHT22;9854;50.968;4.168;2023-10-09T11:20:36;22.30;99.90
19437;DHT22;9854;50.968;4.168;2023-10-09T11:23:19;22.20;99.90
19437;DHT22;9854;50.968;4.168;2023-10-09T11:25:54;21.80;99.90
19437;DHT22;9854;50.968;4.168;2023-10-09T11:28:40;21.60;99.90
19437;DHT22;9854;50.968;4.168;2023-10-09T11:31:15;21.20;99.90
19437;DHT22;9854;50.968;4.168;2023-10-09T11:33:50;21.20;99.90
19437;DHT22;9854;50.968;4.168;2023-10-09T11:36:22;21.30;99.90
19437;DHT22;9854;50.968;4.168;2023-10-09T11:39:02;21.60;99.90
19437;DHT22;9854;50.968;4.168;2023-10-09T11:41:48;21.60;99.90
19437;DHT22;9854;50.968;4.168;2023-10-09T11:44:40;21.40;99.90
19437;DHT22;9854;50.968;4.168;2023-10-09T11:47:09;21.50;99.90
19437;DHT22;9854;50.968;4.168;2023-10-09T11:49:49;21.70;99.90
19437;DHT22;9854;50.968;4.168;2023-10-09T11:52:22;21.90;99.90
19437;DHT22;9854;50.968;4.168;2023-10-09T11:54:57;21.90;99.90
19437;DHT22;9854;50.968;4.168;2023-10-09T11:57:24;21.80;99.90
19437;DHT22;9854;50.968;4.168;2023-10-09T11:59:57;21.90;99.90
19437;DHT22;9854;50.968;4.168;2023-10-09T12:02:24;22.10;99.90
19437;DHT22;9854;50.968;4.168;2023-10-09T12:04:49;22.10;99.90
19437;DHT22;9854;50.968;4.168;2023-10-09T12:07:15;22.10;99.90
19437;DHT22;9854;50.968;4.168;2023-10-09T12:09:41;22.00;99.90
19437;DHT22;9854;50.968;4.168;2023-10-09T12:12:08;21.90;99.90
19437;DHT22;9854;50.968;4.168;2023-10-09T12:14:36;22.00;99.90
19437;DHT22;9854;50.968;4.168;2023-10-09T12:17:07;22.00;99.90
19437;DHT22;9854;50.968;4.168;2023-10-09T12:19:37;22.10;99.90
19437;DHT22;9854;50.968;4.168;2023-10-09T12:22:06;22.20;99.90
19437;DHT22;9854;50.968;4.168;2023-10-09T12:24:33;22.20;99.90
19437;DHT22;9854;50.968;4.168;2023-10-09T12:26:59;22.20;99.90
19437;DHT22;9854;50.968;4.168;2023-10-09T12:29:25;22.20;99.90
19437;DHT22;9854;50.968;4.168;2023-10-09T12:31:56;21.90;99.90
19437;DHT22;9854;50.968;4.168;2023-10-09T12:34:25;21.60;99.90
19437;DHT22;9854;50.968;4.168;2023-10-09T12:36:57;21.50;99.90
19437;DHT22;9854;50.968;4.168;2023-10-09T12:39:27;21.70;99.90
19437;DHT22;9854;50.968;4.168;2023-10-09T12:41:59;21.90;99.90
19437;DHT22;9854;50.968;4.168;2023-10-09T12:44:35;22.00;99.90
19437;DHT22;9854;50.968;4.168;2023-10-09T12:47:07;21.70;99.90
19437;DHT22;9854;50.968;4.168;2023-10-09T12:49:33;21.70;99.90
19437;DHT22;9854;50.968;4.168;2023-10-09T12:51:59;21.70;99.90
19437;DHT22;9854;50.968;4.168;2023-10-09T12:54:25;21.80;99.90
19437;DHT22;9854;50.968;4.168;2023-10-09T12:56:56;22.00;99.90
19437;DHT22;9854;50.968;4.168;2023-10-09T12:59:23;22.00;99.90
19437;DHT22;9854;50.968;4.168;2023-10-09T13:01:50;21.90;99.90
19437;DHT22;9854;50.968;4.168;2023-10-09T13:04:23;22.00;99.90
19437;DHT22;9854;50.968;4.168;2023-10-09T13:06:49;22.20;99.90
19437;DHT22;9854;50.968;4.168;2023-10-09T13:09:20;22.30;99.90
19437;DHT22;9854;50.968;4.168;2023-10-09T13:12:00;22.50;99.90
19437;DHT22;9854;50.968;4.168;2023-10-09T13:14:27;22.20;99.90
19437;DHT22;9854;50.968;4.168;2023-10-09T13:16:52;22.10;99.90
19437;DHT22;9854;50.968;4.168;2023-10-09T13:19:18;22.40;99.90
19437;DHT22;9854;50.968;4.168;2023-10-09T13:21:44;22.80;99.90
19437;DHT22;9854;50.968;4.168;2023-10-09T13:24:10;22.80;99.90
19437;DHT22;9854;50.968;4.168;2023-10-09T13:26:44;22.70;99.90
19437;DHT22;9854;50.968;4.168;2023-10-09T13:29:12;22.80;99.90
19437;DHT22;9854;50.968;4.168;2023-10-09T13:31:39;22.80;99.90
19437;DHT22;9854;50.968;4.168;2023-10-09T13:34:06;22.70;99.90
19437;DHT22;9854;50.968;4.168;2023-10-09T13:36:32;22.60;99.90
19437;DHT22;9854;50.968;4.168;2023-10-09T13:39:03;22.50;99.90
19437;DHT22;9854;50.968;4.168;2023-10-09T13:41:54;22.40;99.90
19437;DHT22;9854;50.968;4.168;2023-10-09T13:44:33;22.40;99.90
19437;DHT22;9854;50.968;4.168;2023-10-09T13:47:00;22.80;99.90
19437;DHT22;9854;50.968;4.168;2023-10-09T13:49:31;23.00;99.90
19437;DHT22;9854;50.968;4.168;2023-10-09T13:52:01;22.90;99.90
19437;DHT22;9854;50.968;4.168;2023-10-09T13:54:27;22.90;99.90
19437;DHT22;9854;50.968;4.168;2023-10-09T13:57:03;22.90;99.90
19437;DHT22;9854;50.968;4.168;2023-10-09T13:59:30;23.10;99.90
19437;DHT22;9854;50.968;4.168;2023-10-09T14:01:56;22.80;99.90
19437;DHT22;9854;50.968;4.168;2023-10-09T14:04:25;23.00;99.90
19437;DHT22;9854;50.968;4.168;2023-10-09T14:06:52;22.80;99.90
19437;DHT22;9854;50.968;4.168;2023-10-09T14:09:26;22.80;99.90
19437;DHT22;9854;50.968;4.168;2023-10-09T14:12:04;22.90;99.90
19437;DHT22;9854;50.968;4.168;2023-10-09T14:14:41;23.10;99.90
19437;DHT22;9854;50.968;4.168;2023-10-09T14:17:22;23.10;99.90
19437;DHT22;9854;50.968;4.168;2023-10-09T14:19:54;23.40;99.90
19437;DHT22;9854;50.968;4.168;2023-10-09T14:22:22;23.30;99.90
19437;DHT22;9854;50.968;4.168;2023-10-09T14:24:52;23.10;99.90
19437;DHT22;9854;50.968;4.168;2023-10-09T14:27:23;23.10;99.90
19437;DHT22;9854;50.968;4.168;2023-10-09T14:29:52;23.20;99.90
19437;DHT22;9854;50.968;4.168;2023-10-09T14:32:22;23.10;99.90
19437;DHT22;9854;50.968;4.168;2023-10-09T14:35:03;22.80;99.90
19437;DHT22;9854;50.968;4.168;2023-10-09T14:37:41;22.80;99.90
19437;DHT22;9854;50.968;4.168;2023-10-09T14:40:08;22.70;99.90
19437;DHT22;9854;50.968;4.168;2023-10-09T14:42:46;22.80;99.90
19437;DHT22;9854;50.968;4.168;2023-10-09T14:45:12;22.70;99.90
19437;DHT22;9854;50.968;4.168;2023-10-09T14:47:43;22.70;99.90
19437;DHT22;9854;50.968;4.168;2023-10-09T14:50:12;22.50;99.90
19437;DHT22;9854;50.968;4.168;2023-10-09T14:52:39;22.50;99.90
19437;DHT22;9854;50.968;4.168;2023-10-09T14:55:06;22.40;99.90
19437;DHT22;9854;50.968;4.168;2023-10-09T14:57:32;22.50;99.90
19437;DHT22;9854;50.968;4.168;2023-10-09T15:00:01;22.60;99.90
19437;DHT22;9854;50.968;4.168;2023-10-09T15:02:32;22.80;99.90
19437;DHT22;9854;50.968;4.168;2023-10-09T15:04:58;23.10;99.90
19437;DHT22;9854;50.968;4.168;2023-10-09T15:07:23;23.20;99.90
19437;DHT22;9854;50.968;4.168;2023-10-09T15:09:49;23.30;99.90
19437;DHT22;9854;50.968;4.168;2023-10-09T15:12:16;23.10;99.90
19437;DHT22;9854;50.968;4.168;2023-10-09T15:14:42;23.10;99.90
19437;DHT22;9854;50.968;4.168;2023-10-09T15:17:08;23.00;99.90
19437;DHT22;9854;50.968;4.168;2023-10-09T15:19:34;22.80;99.90
19437;DHT22;9854;50.968;4.168;2023-10-09T15:22:00;22.80;99.90
19437;DHT22;9854;50.968;4.168;2023-10-09T15:24:27;22.80;99.90
19437;DHT22;9854;50.968;4.168;2023-10-09T15:26:55;22.80;99.90
19437;DHT22;9854;50.968;4.168;2023-10-09T15:29:25;22.80;99.90
19437;DHT22;9854;50.968;4.168;2023-10-09T15:31:59;22.90;99.90
19437;DHT22;9854;50.968;4.168;2023-10-09T15:34:39;23.20;99.90
19437;DHT22;9854;50.968;4.168;2023-10-09T15:37:07;23.50;99.90
19437;DHT22;9854;50.968;4.168;2023-10-09T15:39:35;23.80;99.90
19437;DHT22;9854;50.968;4.168;2023-10-09T15:42:00;23.90;99.90
19437;DHT22;9854;50.968;4.168;2023-10-09T15:44:29;24.10;99.90
19437;DHT22;9854;50.968;4.168;2023-10-09T15:46:59;24.40;99.90
19437;DHT22;9854;50.968;4.168;2023-10-09T15:49:28;24.60;99.90
19437;DHT22;9854;50.968;4.168;2023-10-09T15:51:56;24.70;99.90
19437;DHT22;9854;50.968;4.168;2023-10-09T15:54:23;24.90;99.90
19437;DHT22;9854;50.968;4.168;2023-10-09T15:56:49;25.00;99.90
19437;DHT22;9854;50.968;4.168;2023-10-09T15:59:15;25.00;99.90
19437;DHT22;9854;50.968;4.168;2023-10-09T16:01:42;25.20;99.90
19437;DHT22;9854;50.968;4.168;2023-10-09T16:04:08;25.40;99.90
19437;DHT22;9854;50.968;4.168;2023-10-09T16:06:36;25.50;99.90
19437;DHT22;9854;50.968;4.168;2023-10-09T16:09:07;25.40;99.90
19437;DHT22;9854;50.968;4.168;2023-10-09T16:11:41;25.00;99.90
19437;DHT22;9854;50.968;4.168;2023-10-09T16:14:07;24.80;99.90
19437;DHT22;9854;50.968;4.168;2023-10-09T16:16:35;24.60;99.90
19437;DHT22;9854;50.968;4.168;2023-10-09T16:19:08;24.40;99.90
19437;DHT22;9854;50.968;4.168;2023-10-09T16:21:38;24.50;99.90
19437;DHT22;9854;50.968;4.168;2023-10-09T16:24:05;24.70;99.90
19437;DHT22;9854;50.968;4.168;2023-10-09T16:26:32;24.90;99.90
19437;DHT22;9854;50.968;4.168;2023-10-09T16:29:08;25.00;99.90
19437;DHT22;9854;50.968;4.168;2023-10-09T16:31:35;25.20;99.90
19437;DHT22;9854;50.968;4.168;2023-10-09T16:34:04;25.20;99.90
19437;DHT22;9854;50.968;4.168;2023-10-09T16:36:33;25.20;99.90